Webcam & Weather

This webcam image will automatically refresh every 15 seconds.


METAR and TAF for EGLL Heathrow (12 Nautical Miles East of White Waltham)

Available data for EGLL from the past hour
LONDON/HEATHROW
Metar
EGLL 240550Z AUTO 03005KT 6000 -RA FEW009 11/10 Q1021 TEMPO 4000 SHRA BKN010

05:50 UTC

Wind: 30° 5kt

Visibility: 6000 m

Sky: FEW 900 ft

Temp: 11 deg C / 51.8 deg F

Dewpoint: 10 deg C / 50 deg F

Pressure: 1021 hPa

TAF
TAF EGLL 240452Z 2406/2512 03006KT 9999 FEW040 TEMPO 2406/2502 7000 SHRA PROB40 TEMPO 2406/2410 4000 +SHRA BKN010 BKN040CB PROB40 TEMPO 2414/2422 VRB15G25KT 3000 +TSRA BECMG 2423/2502 BKN010 PROB30 TEMPO 2502/2508 4000 BR BKN006 BECMG 2509/2512 SCT020

Play 24 hour timelapse | Play 30 day timelapse

Comments are closed.